createdAt,value
2023-03-02T00:00:18.069Z,13.45
2023-03-02T00:02:48.814Z,12.35
2023-03-02T00:05:19.976Z,14.63
2023-03-02T00:07:51.100Z,13.18
2023-03-02T00:10:21.350Z,13.93
2023-03-02T00:12:52.137Z,11.52
2023-03-02T00:15:25.120Z,13.40
2023-03-02T00:17:55.681Z,13.75
2023-03-02T00:20:26.595Z,15.48
2023-03-02T00:22:58.952Z,14.50
2023-03-02T00:25:29.972Z,13.43
2023-03-02T00:28:00.484Z,17.83
2023-03-02T00:30:30.658Z,15.10
2023-03-02T00:33:01.156Z,15.43
2023-03-02T00:35:31.149Z,19.55
2023-03-02T00:38:01.726Z,15.65
2023-03-02T00:40:31.853Z,20.23
2023-03-02T00:43:02.416Z,19.85
2023-03-02T00:45:32.953Z,19.50
2023-03-02T00:48:03.405Z,17.85
2023-03-02T00:50:34.298Z,13.88
2023-03-02T00:53:06.788Z,14.13
2023-03-02T00:55:37.808Z,18.08
2023-03-02T00:58:08.848Z,16.20
2023-03-02T01:00:39.350Z,15.10
2023-03-02T01:03:11.535Z,15.80
2023-03-02T01:05:41.712Z,17.90
2023-03-02T01:08:12.348Z,19.95
2023-03-02T01:10:42.997Z,16.50
2023-03-02T01:13:13.781Z,16.05
2023-03-02T01:15:43.993Z,19.95
2023-03-02T01:18:14.655Z,24.15
2023-03-02T01:20:44.856Z,18.45
2023-03-02T01:23:15.338Z,23.08
2023-03-02T01:25:45.313Z,24.48
2023-03-02T01:28:15.768Z,19.52
2023-03-02T01:30:45.803Z,20.35
2023-03-02T01:33:16.423Z,22.13
2023-03-02T01:35:48.419Z,18.88
2023-03-02T01:38:18.977Z,20.55
2023-03-02T01:40:49.082Z,20.20
2023-03-02T01:43:19.643Z,23.48
2023-03-02T01:45:57.129Z,22.45
2023-03-02T01:48:51.180Z,20.95
2023-03-02T01:51:33.425Z,21.17
2023-03-02T01:54:07.991Z,17.15
2023-03-02T01:56:42.648Z,19.48
2023-03-02T01:59:18.215Z,17.85
2023-03-02T02:01:54.215Z,16.88
2023-03-02T02:04:27.272Z,19.05
2023-03-02T02:07:04.540Z,18.52
2023-03-02T02:09:52.624Z,20.25
2023-03-02T02:12:24.953Z,19.35
2023-03-02T02:15:01.667Z,18.40
2023-03-02T02:17:32.648Z,19.00
2023-03-02T02:20:20.714Z,23.33
2023-03-02T02:23:07.678Z,19.50
2023-03-02T02:26:03.028Z,23.55
2023-03-02T02:28:39.676Z,23.75
2023-03-02T02:31:38.361Z,22.58
2023-03-02T02:34:23.651Z,21.30
2023-03-02T02:37:07.428Z,19.75
2023-03-02T02:39:42.476Z,19.75
2023-03-02T02:42:34.925Z,19.00
2023-03-02T02:45:28.007Z,18.05
2023-03-02T02:47:58.687Z,21.15
2023-03-02T02:50:36.122Z,21.15
2023-03-02T02:53:12.966Z,15.98
2023-03-02T02:55:44.475Z,17.08
2023-03-02T02:58:48.682Z,19.98
2023-03-02T03:01:21.984Z,25.38
2023-03-02T03:03:55.736Z,27.13
2023-03-02T03:06:31.584Z,23.83
2023-03-02T03:09:05.513Z,22.23
2023-03-02T03:11:48.474Z,20.83
2023-03-02T03:14:22.633Z,20.27
2023-03-02T03:16:55.288Z,20.63
2023-03-02T03:19:30.290Z,21.67
2023-03-02T03:22:03.572Z,21.15
2023-03-02T03:24:37.575Z,23.40
2023-03-02T03:27:09.952Z,21.35
2023-03-02T03:29:46.640Z,23.75
2023-03-02T03:32:19.238Z,24.80
2023-03-02T03:37:26.755Z,20.88
2023-03-02T03:39:57.444Z,18.42
2023-03-02T03:42:28.609Z,15.95
2023-03-02T03:47:30.730Z,19.85
2023-03-02T03:50:00.805Z,23.63
2023-03-02T03:52:32.640Z,27.23
2023-03-02T03:55:10.849Z,21.45
2023-03-02T03:57:41.563Z,23.10
2023-03-02T04:00:23.674Z,22.85
2023-03-02T04:03:06.800Z,20.33
2023-03-02T04:05:37.061Z,21.13
2023-03-02T04:08:09.073Z,18.33
2023-03-02T04:10:39.780Z,24.05
2023-03-02T04:13:10.431Z,21.92
2023-03-02T04:15:43.646Z,20.77
2023-03-02T04:18:15.618Z,25.23
2023-03-02T04:20:45.784Z,26.92
2023-03-02T04:23:16.322Z,18.98
2023-03-02T04:25:46.423Z,23.65
2023-03-02T04:28:21.706Z,20.85
2023-03-02T04:30:52.687Z,21.75
2023-03-02T04:33:23.402Z,24.35
2023-03-02T04:35:55.729Z,21.63
2023-03-02T04:38:30.698Z,25.10
2023-03-02T04:41:01.266Z,18.88
2023-03-02T04:43:33.391Z,23.95
2023-03-02T04:46:03.583Z,28.90
2023-03-02T04:48:34.143Z,24.75
2023-03-02T04:51:04.240Z,25.50
2023-03-02T04:53:34.769Z,26.08
2023-03-02T04:56:04.933Z,26.63
2023-03-02T04:58:35.483Z,28.13
2023-03-02T05:01:05.647Z,26.98
2023-03-02T05:03:36.270Z,27.63
2023-03-02T05:06:06.615Z,27.83
2023-03-02T05:08:37.304Z,31.02
2023-03-02T05:11:09.021Z,26.92
2023-03-02T05:13:39.627Z,31.20
2023-03-02T05:16:09.851Z,28.00
2023-03-02T05:18:40.392Z,30.05
2023-03-02T05:21:11.251Z,29.17
2023-03-02T05:23:42.380Z,25.90
2023-03-02T05:26:12.764Z,25.58
2023-03-02T05:28:43.703Z,34.42
2023-03-02T05:31:32.165Z,33.92
2023-03-02T05:34:03.843Z,25.58
2023-03-02T05:36:34.298Z,28.55
2023-03-02T05:39:05.236Z,28.05
2023-03-02T05:41:36.891Z,30.73
2023-03-02T05:44:10.696Z,31.05
2023-03-02T05:46:41.022Z,30.30
2023-03-02T05:49:11.953Z,37.72
2023-03-02T05:51:42.066Z,30.67
2023-03-02T05:54:12.612Z,27.10
2023-03-02T05:56:43.082Z,37.15
2023-03-02T05:59:13.621Z,33.10
2023-03-02T06:01:43.727Z,37.72
2023-03-02T06:04:14.589Z,29.25
2023-03-02T06:06:45.641Z,27.60
2023-03-02T06:09:16.171Z,25.17
2023-03-02T06:11:46.753Z,22.65
2023-03-02T06:14:17.310Z,26.70
2023-03-02T06:16:49.897Z,25.95
2023-03-02T06:19:20.546Z,26.80
2023-03-02T06:21:50.643Z,30.05
2023-03-02T06:24:21.280Z,28.30
2023-03-02T06:26:51.397Z,27.52
2023-03-02T06:29:22.639Z,26.73
2023-03-02T06:31:53.067Z,30.10
2023-03-02T06:34:23.731Z,28.83
2023-03-02T06:36:53.803Z,24.08
2023-03-02T06:39:24.928Z,26.88
2023-03-02T06:41:55.094Z,26.75
2023-03-02T06:44:25.618Z,30.35
2023-03-02T06:46:55.643Z,22.83
2023-03-02T06:49:26.157Z,26.60
2023-03-02T06:51:56.201Z,24.55
2023-03-02T06:54:26.722Z,28.42
2023-03-02T06:56:58.917Z,27.33
2023-03-02T07:01:58.709Z,18.25
2023-03-02T07:04:31.874Z,23.42
2023-03-02T07:07:02.376Z,22.58
2023-03-02T07:09:35.323Z,24.95
2023-03-02T07:12:05.888Z,26.33
2023-03-02T07:14:37.791Z,26.48
2023-03-02T07:17:08.375Z,25.45
2023-03-02T07:19:40.981Z,25.83
2023-03-02T07:22:11.570Z,29.67
2023-03-02T07:24:42.991Z,25.38
2023-03-02T07:27:14.605Z,28.80
2023-03-02T07:29:44.730Z,21.75
2023-03-02T07:32:15.237Z,26.40
2023-03-02T07:34:45.361Z,26.15
2023-03-02T07:37:15.214Z,22.02
2023-03-02T07:39:45.909Z,23.52
2023-03-02T07:42:16.401Z,30.08
2023-03-02T07:44:53.415Z,31.13
2023-03-02T07:47:23.786Z,22.15
2023-03-02T07:49:54.327Z,19.98
2023-03-02T07:52:24.672Z,18.45
2023-03-02T07:54:55.208Z,27.42
2023-03-02T07:57:25.399Z,20.02
2023-03-02T07:59:55.867Z,30.45
2023-03-02T08:02:26.630Z,24.15
2023-03-02T08:04:57.532Z,22.90
2023-03-02T08:07:27.676Z,22.33
2023-03-02T08:09:59.233Z,20.50
2023-03-02T08:12:30.183Z,21.02
2023-03-02T08:15:01.716Z,26.45
2023-03-02T08:17:33.601Z,21.00
2023-03-02T08:20:05.593Z,20.45
2023-03-02T08:22:36.021Z,23.23
2023-03-02T08:25:07.108Z,20.90
2023-03-02T08:27:37.407Z,17.27
2023-03-02T08:30:08.983Z,19.98
2023-03-02T08:32:39.230Z,19.58
2023-03-02T08:35:10.570Z,22.13
2023-03-02T08:37:40.608Z,16.08
2023-03-02T08:40:11.168Z,17.23
2023-03-02T08:42:41.906Z,21.63
2023-03-02T08:45:12.271Z,19.23
2023-03-02T08:47:42.810Z,24.00
2023-03-02T08:50:13.253Z,22.52
2023-03-02T08:52:43.812Z,24.80
2023-03-02T08:55:15.099Z,31.63
2023-03-02T08:57:45.536Z,27.73
2023-03-02T09:00:17.543Z,22.73
2023-03-02T09:02:48.039Z,22.08
2023-03-02T09:05:18.353Z,23.40
2023-03-02T09:07:49.993Z,32.17
2023-03-02T09:10:20.282Z,22.05
2023-03-02T09:12:51.302Z,23.42
2023-03-02T09:15:21.383Z,21.95
2023-03-02T09:17:51.978Z,24.05
2023-03-02T09:20:22.947Z,20.98
2023-03-02T09:22:53.491Z,29.13
2023-03-02T09:25:23.696Z,26.98
2023-03-02T09:27:54.142Z,31.08
2023-03-02T09:30:24.235Z,31.25
2023-03-02T09:32:54.855Z,35.00
2023-03-02T09:35:25.004Z,25.20
2023-03-02T09:37:55.934Z,40.83
2023-03-02T09:40:28.810Z,29.23
2023-03-02T09:43:07.026Z,30.70
2023-03-02T09:45:55.643Z,22.48
2023-03-02T09:48:32.169Z,23.98
2023-03-02T09:51:22.821Z,23.02
2023-03-02T09:54:11.980Z,20.02
2023-03-02T09:56:47.028Z,17.17
2023-03-02T09:59:24.488Z,19.17
2023-03-02T10:02:02.519Z,16.30
2023-03-02T10:04:47.294Z,15.30
2023-03-02T10:07:29.026Z,14.75
2023-03-02T10:10:06.195Z,17.52
2023-03-02T10:13:01.134Z,16.65
2023-03-02T10:16:06.554Z,17.08
2023-03-02T10:18:43.177Z,16.20
2023-03-02T10:21:31.467Z,13.77
2023-03-02T10:24:31.549Z,10.70
2023-03-02T10:27:39.380Z,16.40
2023-03-02T10:30:32.519Z,12.13
2023-03-02T10:33:13.581Z,13.48
2023-03-02T10:35:49.761Z,15.63
2023-03-02T10:38:22.664Z,14.77
2023-03-02T10:40:58.179Z,10.30
2023-03-02T10:43:52.615Z,12.25
2023-03-02T10:46:22.909Z,10.07
2023-03-02T10:48:57.520Z,10.18
2023-03-02T10:51:36.708Z,15.73
2023-03-02T10:54:14.076Z,12.82
2023-03-02T10:56:50.197Z,13.20
2023-03-02T10:59:49.436Z,10.05
2023-03-02T11:02:25.304Z,11.25
2023-03-02T11:04:59.067Z,7.75
2023-03-02T11:07:31.221Z,12.98
2023-03-02T11:10:04.286Z,10.93
2023-03-02T11:12:37.962Z,11.52
2023-03-02T11:15:25.208Z,11.25
2023-03-02T11:18:22.295Z,12.90
2023-03-02T11:20:56.487Z,13.00
2023-03-02T11:23:37.966Z,12.35
2023-03-02T11:26:35.344Z,11.10
2023-03-02T11:29:28.336Z,15.70
2023-03-02T11:32:20.918Z,17.08
2023-03-02T11:35:02.173Z,14.98
2023-03-02T11:37:41.767Z,11.65
2023-03-02T11:40:31.828Z,13.55
2023-03-02T11:43:06.031Z,14.38
2023-03-02T11:45:45.274Z,11.65
2023-03-02T11:48:30.603Z,12.93
2023-03-02T11:51:03.433Z,12.10
2023-03-02T11:53:52.156Z,12.70
2023-03-02T11:56:22.626Z,12.07
2023-03-02T11:59:00.614Z,10.10
2023-03-02T12:01:32.696Z,14.02
2023-03-02T12:04:37.248Z,12.48
2023-03-02T12:07:24.249Z,10.00
2023-03-02T12:10:32.709Z,11.52
2023-03-02T12:13:22.829Z,12.38
2023-03-02T12:15:54.248Z,11.27
2023-03-02T12:18:24.302Z,10.60
2023-03-02T12:21:17.176Z,10.52
2023-03-02T12:23:53.347Z,11.20
2023-03-02T12:26:23.721Z,9.93
2023-03-02T12:29:10.943Z,10.25
2023-03-02T12:31:42.533Z,11.68
2023-03-02T12:34:27.260Z,9.95
2023-03-02T12:37:02.752Z,11.65
2023-03-02T12:40:02.775Z,10.20
2023-03-02T12:42:36.619Z,12.07
2023-03-02T12:45:25.814Z,9.25
2023-03-02T12:48:06.267Z,7.82
2023-03-02T12:50:40.701Z,10.43
2023-03-02T12:53:20.391Z,8.00
2023-03-02T12:55:50.613Z,9.52
2023-03-02T12:58:24.641Z,7.68
2023-03-02T13:01:01.189Z,11.45
2023-03-02T13:03:33.216Z,10.60
2023-03-02T13:08:46.615Z,9.60
2023-03-02T13:11:22.937Z,10.27
2023-03-02T13:13:53.485Z,9.55
2023-03-02T13:16:26.380Z,10.18
2023-03-02T13:18:59.659Z,8.98
2023-03-02T13:21:35.394Z,13.50
2023-03-02T13:24:26.401Z,8.77
2023-03-02T13:27:08.243Z,9.48
2023-03-02T13:29:38.772Z,10.38
2023-03-02T13:32:22.342Z,8.50
2023-03-02T13:34:58.917Z,11.30
2023-03-02T13:37:44.878Z,9.48
2023-03-02T13:40:24.191Z,11.63
2023-03-02T13:42:55.218Z,8.85
2023-03-02T13:48:19.177Z,8.55
2023-03-02T13:51:04.449Z,8.77
2023-03-02T13:53:39.104Z,9.35
2023-03-02T13:56:12.581Z,8.10
2023-03-02T13:58:42.854Z,11.18
2023-03-02T14:01:15.065Z,7.80
2023-03-02T14:03:45.146Z,9.55
2023-03-02T14:06:15.692Z,10.50
2023-03-02T14:08:47.118Z,7.88
2023-03-02T14:11:19.108Z,7.60
2023-03-02T14:13:56.598Z,10.82
2023-03-02T14:16:27.764Z,9.38
2023-03-02T14:18:58.052Z,9.90
2023-03-02T14:21:28.565Z,7.63
2023-03-02T14:24:00.186Z,9.43
2023-03-02T14:26:37.345Z,7.97
2023-03-02T14:29:29.655Z,11.95
2023-03-02T14:32:04.748Z,5.40
2023-03-02T14:34:37.038Z,7.30
2023-03-02T14:37:16.442Z,9.57
2023-03-02T14:39:55.326Z,11.38
2023-03-02T14:42:26.340Z,9.10
2023-03-02T14:44:56.990Z,9.20
2023-03-02T14:47:27.068Z,7.28
2023-03-02T14:49:57.646Z,9.65
2023-03-02T14:52:35.904Z,9.00
2023-03-02T14:55:31.062Z,8.20
2023-03-02T14:58:07.305Z,8.55
2023-03-02T15:00:38.019Z,8.55
2023-03-02T15:03:08.091Z,7.13
2023-03-02T15:05:39.588Z,8.55
2023-03-02T15:08:14.983Z,7.10
2023-03-02T15:10:48.155Z,8.40
2023-03-02T15:13:18.581Z,6.22
2023-03-02T15:16:44.305Z,11.15
2023-03-02T15:19:33.319Z,7.28
2023-03-02T15:22:03.433Z,5.30
2023-03-02T15:24:33.558Z,5.90
2023-03-02T15:27:03.664Z,6.10
2023-03-02T15:29:32.925Z,4.43
2023-03-02T15:32:02.446Z,6.15
2023-03-02T15:34:31.821Z,6.57
2023-03-02T15:37:01.785Z,7.72
2023-03-02T15:39:31.252Z,4.80
2023-03-02T15:42:00.923Z,3.83
2023-03-02T15:44:31.592Z,5.05
2023-03-02T15:47:02.123Z,5.15
2023-03-02T15:49:33.915Z,5.22
2023-03-02T15:54:33.390Z,4.38
2023-03-02T15:57:03.277Z,6.10
2023-03-02T15:59:33.609Z,5.20
2023-03-02T16:02:03.589Z,6.15
2023-03-02T16:04:35.615Z,5.63
2023-03-02T16:07:06.515Z,2.78
2023-03-02T16:09:38.181Z,5.30
2023-03-02T16:12:08.089Z,4.30
2023-03-02T16:14:38.298Z,4.28
2023-03-02T16:17:08.107Z,4.47
2023-03-02T16:19:38.863Z,6.43
2023-03-02T16:22:08.603Z,5.50
2023-03-02T16:24:38.745Z,5.30
2023-03-02T16:27:10.416Z,7.10
2023-03-02T16:29:40.181Z,4.50
2023-03-02T16:32:10.778Z,5.53
2023-03-02T16:34:40.577Z,5.07
2023-03-02T16:37:10.940Z,6.88
2023-03-02T16:39:40.547Z,5.15
2023-03-02T16:42:10.312Z,6.03
2023-03-02T16:44:40.567Z,6.30
2023-03-02T16:47:10.328Z,5.47
2023-03-02T16:49:40.481Z,5.10
2023-03-02T16:52:10.255Z,8.50
2023-03-02T16:54:40.038Z,7.43
2023-03-02T16:57:10.711Z,7.97
2023-03-02T16:59:40.720Z,3.97
2023-03-02T17:02:12.962Z,6.43
2023-03-02T17:04:42.870Z,6.00
2023-03-02T17:07:13.077Z,7.82
2023-03-02T17:09:42.852Z,7.10
2023-03-02T17:12:12.669Z,5.43
2023-03-02T17:14:43.015Z,6.88
2023-03-02T17:17:12.797Z,7.55
2023-03-02T17:19:42.992Z,5.85
2023-03-02T17:22:13.002Z,4.18
2023-03-02T17:24:43.183Z,6.10
2023-03-02T17:27:24.230Z,5.43
2023-03-02T17:29:56.091Z,7.80
2023-03-02T17:32:26.026Z,7.55
2023-03-02T17:34:55.822Z,6.05
2023-03-02T17:37:27.194Z,6.65
2023-03-02T17:39:57.177Z,8.48
2023-03-02T17:42:28.066Z,7.03
2023-03-02T17:44:58.507Z,7.97
2023-03-02T17:47:28.356Z,14.88
2023-03-02T17:49:59.470Z,10.32
2023-03-02T17:52:30.708Z,8.88
2023-03-02T17:55:00.861Z,7.35
2023-03-02T17:57:30.412Z,7.65
2023-03-02T18:00:00.242Z,8.98
2023-03-02T18:02:29.888Z,10.43
2023-03-02T18:05:00.412Z,7.68
2023-03-02T18:07:30.150Z,11.32
2023-03-02T18:09:59.793Z,8.30
2023-03-02T18:12:30.026Z,8.32
2023-03-02T18:15:00.798Z,7.15
2023-03-02T18:17:31.379Z,7.95
2023-03-02T18:20:01.204Z,7.63
2023-03-02T18:22:31.780Z,8.90
2023-03-02T18:25:02.011Z,7.18
2023-03-02T18:27:31.726Z,7.70
2023-03-02T18:30:01.719Z,7.85
2023-03-02T18:32:32.060Z,7.57
2023-03-02T18:35:01.958Z,7.75
2023-03-02T18:37:34.967Z,8.45
2023-03-02T18:40:05.812Z,7.82
2023-03-02T18:42:36.378Z,7.55
2023-03-02T18:45:07.701Z,8.52
2023-03-02T18:47:38.223Z,11.48
2023-03-02T18:50:08.414Z,7.47
2023-03-02T18:52:38.575Z,9.00
2023-03-02T18:55:10.045Z,8.43
2023-03-02T18:57:41.084Z,9.77
2023-03-02T19:00:17.486Z,7.63
2023-03-02T19:02:47.668Z,8.85
2023-03-02T19:05:20.588Z,8.93
2023-03-02T19:07:51.185Z,9.73
2023-03-02T19:10:21.868Z,8.75
2023-03-02T19:12:52.074Z,8.40
2023-03-02T19:15:22.017Z,6.65
2023-03-02T19:17:53.016Z,9.15
2023-03-02T19:20:22.959Z,12.52
2023-03-02T19:22:53.170Z,12.13
2023-03-02T19:25:22.810Z,11.00
2023-03-02T19:27:53.021Z,11.10
2023-03-02T19:30:26.407Z,8.27
2023-03-02T19:32:56.714Z,8.90
2023-03-02T19:35:29.557Z,10.13
2023-03-02T19:37:59.382Z,8.77
2023-03-02T19:40:31.326Z,12.93
2023-03-02T19:43:02.071Z,11.05
2023-03-02T19:45:33.929Z,9.48
2023-03-02T19:48:05.013Z,9.15
2023-03-02T19:50:34.819Z,10.60
2023-03-02T19:53:05.111Z,6.60
2023-03-02T19:55:36.957Z,9.45
2023-03-02T19:58:09.076Z,8.88
2023-03-02T20:00:39.962Z,7.63
2023-03-02T20:03:10.274Z,10.90
2023-03-02T20:05:40.572Z,12.77
2023-03-02T20:08:10.972Z,8.88
2023-03-02T20:10:47.883Z,9.98
2023-03-02T20:13:18.923Z,9.85
2023-03-02T20:15:49.325Z,10.05
2023-03-02T20:18:21.540Z,14.63
2023-03-02T20:20:51.302Z,12.65
2023-03-02T20:23:20.939Z,19.50
2023-03-02T20:25:51.256Z,10.60
2023-03-02T20:28:26.677Z,11.48
2023-03-02T20:30:59.786Z,13.48
2023-03-02T20:33:36.637Z,10.30
2023-03-02T20:36:11.710Z,9.18
2023-03-02T20:38:47.969Z,11.23
2023-03-02T20:41:20.442Z,9.57
2023-03-02T20:43:54.839Z,9.18
2023-03-02T20:46:30.205Z,7.85
2023-03-02T20:49:00.527Z,5.68
2023-03-02T20:51:31.524Z,7.07
2023-03-02T20:54:01.490Z,8.55
2023-03-02T20:56:31.896Z,6.20
2023-03-02T20:59:01.793Z,5.80
2023-03-02T21:01:31.519Z,6.15
2023-03-02T21:04:01.735Z,4.97
2023-03-02T21:06:35.564Z,3.28
2023-03-02T21:09:09.800Z,4.18
2023-03-02T21:11:43.354Z,4.20
2023-03-02T21:14:16.915Z,3.75
2023-03-02T21:16:49.694Z,2.95
2023-03-02T21:19:22.396Z,4.97
2023-03-02T21:21:53.510Z,4.03
2023-03-02T21:24:29.533Z,2.67
2023-03-02T21:27:02.645Z,3.03
2023-03-02T21:29:34.473Z,3.58
2023-03-02T21:32:10.374Z,2.70
2023-03-02T21:34:42.289Z,3.90
2023-03-02T21:37:14.712Z,3.83
2023-03-02T21:39:46.621Z,3.42
2023-03-02T21:42:17.905Z,5.13
2023-03-02T21:44:49.741Z,3.47
2023-03-02T21:47:20.646Z,5.18
2023-03-02T21:49:52.691Z,2.67
2023-03-02T21:52:24.137Z,3.38
2023-03-02T21:54:56.928Z,3.10
2023-03-02T21:57:28.232Z,3.97
2023-03-02T22:00:00.169Z,4.07
2023-03-02T22:02:35.457Z,4.28
2023-03-02T22:05:07.533Z,4.82
2023-03-02T22:07:38.750Z,2.17
2023-03-02T22:10:21.209Z,3.92
2023-03-02T22:12:58.602Z,3.28
2023-03-02T22:15:30.399Z,3.15
2023-03-02T22:18:01.771Z,3.78
2023-03-02T22:20:34.559Z,4.53
2023-03-02T22:23:15.828Z,4.10
2023-03-02T22:25:47.540Z,2.92
2023-03-02T22:28:31.688Z,3.80
2023-03-02T22:31:22.244Z,3.80
2023-03-02T22:33:53.442Z,4.50
2023-03-02T22:36:27.149Z,6.85
2023-03-02T22:39:03.920Z,4.75
2023-03-02T22:41:38.289Z,4.47
2023-03-02T22:44:15.278Z,2.65
2023-03-02T22:46:47.469Z,6.10
2023-03-02T22:49:20.585Z,3.85
2023-03-02T22:51:52.873Z,5.15
2023-03-02T22:54:39.408Z,5.32
2023-03-02T22:57:40.498Z,4.70
2023-03-02T23:00:23.080Z,6.75
2023-03-02T23:02:56.748Z,5.50
2023-03-02T23:05:31.539Z,7.03
2023-03-02T23:08:24.766Z,5.95
2023-03-02T23:10:58.935Z,7.63
2023-03-02T23:13:43.198Z,4.78
2023-03-02T23:16:26.521Z,6.50
2023-03-02T23:19:00.544Z,7.00
2023-03-02T23:21:47.976Z,7.40
2023-03-02T23:24:20.616Z,8.73
2023-03-02T23:26:52.182Z,8.07
2023-03-02T23:29:24.285Z,5.88
2023-03-02T23:31:55.967Z,7.38
2023-03-02T23:37:00.497Z,7.03
2023-03-02T23:39:32.415Z,11.70
2023-03-02T23:42:03.848Z,10.25
2023-03-02T23:44:35.890Z,12.90
2023-03-02T23:49:39.603Z,7.65
2023-03-02T23:52:10.669Z,8.43
2023-03-02T23:54:44.373Z,13.77
2023-03-02T23:57:16.062Z,7.30
2023-03-02T23:59:47.971Z,9.20
